createdAt,value
2022-09-14T00:01:37.079Z,22.84
2022-09-14T00:04:08.127Z,22.92
2022-09-14T00:06:35.621Z,23.02
2022-09-14T00:09:06.976Z,23.04
2022-09-14T00:11:38.279Z,23.06
2022-09-14T00:14:06.369Z,23.04
2022-09-14T00:16:39.135Z,23.04
2022-09-14T00:19:28.062Z,23.05
2022-09-14T00:21:57.668Z,23.07
2022-09-14T00:24:27.303Z,23.09
2022-09-14T00:26:55.269Z,22.99
2022-09-14T00:29:23.942Z,22.97
2022-09-14T00:31:51.929Z,22.96
2022-09-14T00:34:19.781Z,22.81
2022-09-14T00:36:49.428Z,22.73
2022-09-14T00:39:18.137Z,22.62
2022-09-14T00:41:47.562Z,22.49
2022-09-14T00:44:14.890Z,22.55
2022-09-14T00:46:43.988Z,22.54
2022-09-14T00:49:17.135Z,22.46
2022-09-14T00:51:53.062Z,22.37
2022-09-14T00:54:21.055Z,22.34
2022-09-14T00:56:49.294Z,22.35
2022-09-14T00:59:22.108Z,22.36
2022-09-14T01:01:50.668Z,22.33
2022-09-14T01:04:18.060Z,22.31
2022-09-14T01:06:59.065Z,22.36
2022-09-14T01:09:36.051Z,22.36
2022-09-14T01:12:06.369Z,22.30
2022-09-14T01:14:45.907Z,22.27
2022-09-14T01:17:31.819Z,22.29
2022-09-14T01:20:24.774Z,22.23
2022-09-14T01:23:03.975Z,22.26
2022-09-14T01:26:09.027Z,22.37
2022-09-14T01:28:47.007Z,22.41
2022-09-14T01:31:27.334Z,22.44
2022-09-14T01:34:06.937Z,22.32
2022-09-14T01:36:37.737Z,22.27
2022-09-14T01:39:06.852Z,22.15
2022-09-14T01:41:35.034Z,22.16
2022-09-14T01:44:09.417Z,22.20
2022-09-14T01:46:44.806Z,22.15
2022-09-14T01:49:18.999Z,22.11
2022-09-14T01:51:49.179Z,22.04
2022-09-14T01:54:20.708Z,22.11
2022-09-14T01:57:14.526Z,22.16
2022-09-14T01:59:44.896Z,22.17
2022-09-14T02:02:18.379Z,22.21
2022-09-14T02:05:09.382Z,22.25
2022-09-14T02:07:37.852Z,22.11
2022-09-14T02:10:10.633Z,22.13
2022-09-14T02:12:40.173Z,22.03
2022-09-14T02:15:11.220Z,22.16
2022-09-14T02:17:39.479Z,22.21
2022-09-14T02:20:14.516Z,22.32
2022-09-14T02:22:42.455Z,22.33
2022-09-14T02:25:10.175Z,22.34
2022-09-14T02:27:37.650Z,22.27
2022-09-14T02:30:05.706Z,22.30
2022-09-14T02:32:53.144Z,22.13
2022-09-14T02:35:36.046Z,22.20
2022-09-14T02:38:32.386Z,22.20
2022-09-14T02:41:37.401Z,22.34
2022-09-14T02:44:07.550Z,22.25
2022-09-14T02:46:42.413Z,22.37
2022-09-14T02:49:44.740Z,22.10
2022-09-14T02:52:36.141Z,21.99
2022-09-14T02:55:10.210Z,21.87
2022-09-14T02:58:00.615Z,21.90
2022-09-14T03:00:29.433Z,21.92
2022-09-14T03:02:57.574Z,22.00
2022-09-14T03:05:26.132Z,22.09
2022-09-14T03:07:53.481Z,21.79
2022-09-14T03:10:21.574Z,21.69
2022-09-14T03:12:49.020Z,21.68
2022-09-14T03:15:16.487Z,21.67
2022-09-14T03:17:48.264Z,21.73
2022-09-14T03:20:18.091Z,21.56
2022-09-14T03:22:46.304Z,21.46
2022-09-14T03:25:14.488Z,21.42
2022-09-14T03:27:41.938Z,21.38
2022-09-14T03:30:09.762Z,21.29
2022-09-14T03:32:39.980Z,21.29
2022-09-14T03:35:07.747Z,21.45
2022-09-14T03:37:38.443Z,21.58
2022-09-14T03:40:07.421Z,21.55
2022-09-14T03:42:35.174Z,21.39
2022-09-14T03:45:03.036Z,21.72
2022-09-14T03:47:31.309Z,21.58
2022-09-14T03:49:58.901Z,21.42
2022-09-14T03:52:26.146Z,21.22
2022-09-14T03:54:57.266Z,21.30
2022-09-14T03:57:24.590Z,21.39
2022-09-14T03:59:51.859Z,21.42
2022-09-14T04:02:19.714Z,21.45
2022-09-14T04:04:48.299Z,21.25
2022-09-14T04:07:16.017Z,21.32
2022-09-14T04:09:43.622Z,21.23
2022-09-14T04:12:11.044Z,21.16
2022-09-14T04:14:38.398Z,21.25
2022-09-14T04:17:05.762Z,21.25
2022-09-14T04:19:37.472Z,21.24
2022-09-14T04:22:05.441Z,21.41
2022-09-14T04:24:32.730Z,21.71
2022-09-14T04:27:00.073Z,21.86
2022-09-14T04:29:30.422Z,21.84
2022-09-14T04:31:58.085Z,21.65
2022-09-14T04:34:25.354Z,21.62
2022-09-14T04:36:52.718Z,21.51
2022-09-14T04:39:23.002Z,21.54
2022-09-14T04:41:50.367Z,21.54
2022-09-14T04:44:17.720Z,21.52
2022-09-14T04:46:46.792Z,21.52
2022-09-14T04:49:19.147Z,21.51
2022-09-14T04:51:46.391Z,21.55
2022-09-14T04:54:16.111Z,21.43
2022-09-14T04:56:44.639Z,21.29
2022-09-14T04:59:12.834Z,21.36
2022-09-14T05:01:43.573Z,21.43
2022-09-14T05:04:12.306Z,21.43
2022-09-14T05:06:42.201Z,21.38
2022-09-14T05:09:18.248Z,21.38
2022-09-14T05:11:46.059Z,21.44
2022-09-14T05:14:14.588Z,21.33
2022-09-14T05:16:43.936Z,21.40
2022-09-14T05:19:14.726Z,21.21
2022-09-14T05:21:42.230Z,21.29
2022-09-14T05:24:15.145Z,21.31
2022-09-14T05:26:46.511Z,21.31
2022-09-14T05:29:16.715Z,21.32
2022-09-14T05:31:45.000Z,21.45
2022-09-14T05:34:13.271Z,21.46
2022-09-14T05:36:41.191Z,21.43
2022-09-14T05:39:09.338Z,21.49
2022-09-14T05:41:37.839Z,21.46
2022-09-14T05:44:05.630Z,21.50
2022-09-14T05:46:35.144Z,21.64
2022-09-14T05:49:04.257Z,21.70
2022-09-14T05:51:31.549Z,21.78
2022-09-14T05:53:59.698Z,21.82
2022-09-14T05:56:28.779Z,21.87
2022-09-14T05:59:00.286Z,21.84
2022-09-14T06:01:33.052Z,22.10
2022-09-14T06:04:04.980Z,22.33
2022-09-14T06:06:33.140Z,22.65
2022-09-14T06:09:02.046Z,22.84
2022-09-14T06:11:31.684Z,22.88
2022-09-14T06:13:59.504Z,22.88
2022-09-14T06:16:28.043Z,23.17
2022-09-14T06:19:00.004Z,23.57
2022-09-14T06:21:29.506Z,23.89
2022-09-14T06:23:57.078Z,23.76
2022-09-14T06:26:25.283Z,23.93
2022-09-14T06:28:55.447Z,23.73
2022-09-14T06:31:22.773Z,23.72
2022-09-14T06:33:51.852Z,23.81
2022-09-14T06:36:22.832Z,23.92
2022-09-14T06:38:51.147Z,24.82
2022-09-14T06:41:26.591Z,26.05
2022-09-14T06:43:56.763Z,27.40
2022-09-14T06:46:26.449Z,28.14
2022-09-14T06:49:10.184Z,28.25
2022-09-14T06:51:40.033Z,27.94
2022-09-14T06:54:08.691Z,27.53
2022-09-14T06:56:38.721Z,27.01
2022-09-14T06:59:07.921Z,26.91
2022-09-14T07:01:36.598Z,27.36
2022-09-14T07:04:04.450Z,27.91
2022-09-14T07:06:39.468Z,28.37
2022-09-14T07:09:07.211Z,28.51
2022-09-14T07:11:35.147Z,28.61
2022-09-14T07:14:02.992Z,29.12
2022-09-14T07:16:32.019Z,29.70
2022-09-14T07:19:04.669Z,30.33
2022-09-14T07:21:33.944Z,30.07
2022-09-14T07:24:01.801Z,28.97
2022-09-14T07:26:32.361Z,27.98
2022-09-14T07:29:03.217Z,27.21
2022-09-14T07:31:36.420Z,26.88
2022-09-14T07:34:05.444Z,26.22
2022-09-14T07:36:35.582Z,26.01
2022-09-14T07:39:09.820Z,26.21
2022-09-14T07:41:37.247Z,25.90
2022-09-14T07:44:09.317Z,26.09
2022-09-14T07:46:39.391Z,26.26
2022-09-14T07:49:10.523Z,26.57
2022-09-14T07:51:38.716Z,26.80
2022-09-14T07:54:07.689Z,26.83
2022-09-14T07:56:35.326Z,27.12
2022-09-14T07:59:30.989Z,27.60
2022-09-14T08:01:50.343Z,27.07
2022-09-14T08:04:21.331Z,27.43
2022-09-14T08:06:48.552Z,27.34
2022-09-14T08:09:16.017Z,28.35
2022-09-14T08:11:43.364Z,28.30
2022-09-14T08:14:14.004Z,28.74
2022-09-14T08:16:41.868Z,28.81
2022-09-14T08:19:18.303Z,28.60
2022-09-14T08:21:47.521Z,28.84
2022-09-14T08:24:20.609Z,28.87
2022-09-14T08:26:48.931Z,27.88
2022-09-14T08:29:34.891Z,27.36
2022-09-14T08:32:02.377Z,26.84
2022-09-14T08:34:29.824Z,26.95
2022-09-14T08:36:57.089Z,27.45
2022-09-14T08:39:24.288Z,27.34
2022-09-14T08:41:57.596Z,27.61
2022-09-14T08:44:27.544Z,27.98
2022-09-14T08:47:13.550Z,27.70
2022-09-14T08:50:17.637Z,27.96
2022-09-14T08:52:52.829Z,27.43
2022-09-14T08:55:32.195Z,26.87
2022-09-14T08:58:21.450Z,26.64
2022-09-14T09:00:51.641Z,26.36
2022-09-14T09:03:19.246Z,26.74
2022-09-14T09:05:53.352Z,26.85
2022-09-14T09:08:31.958Z,26.66
2022-09-14T09:11:01.707Z,26.70
2022-09-14T09:13:39.072Z,26.13
2022-09-14T09:16:10.040Z,25.94
2022-09-14T09:18:53.161Z,26.01
2022-09-14T09:21:25.168Z,25.95
2022-09-14T09:23:58.923Z,26.04
2022-09-14T09:26:30.479Z,26.01
2022-09-14T09:29:00.572Z,26.02
2022-09-14T09:31:40.291Z,25.86
2022-09-14T09:34:33.211Z,25.76
2022-09-14T09:37:40.400Z,25.92
2022-09-14T09:40:16.950Z,25.41
2022-09-14T09:43:28.992Z,25.30
2022-09-14T09:46:10.221Z,25.42
2022-09-14T09:48:43.177Z,25.85
2022-09-14T09:51:28.673Z,26.60
2022-09-14T09:54:21.304Z,26.69
2022-09-14T09:57:27.345Z,28.14
2022-09-14T10:00:17.371Z,28.00
2022-09-14T10:02:44.772Z,27.75
2022-09-14T10:05:21.464Z,27.74
2022-09-14T10:07:59.545Z,27.77
2022-09-14T10:10:45.733Z,27.40
2022-09-14T10:13:22.401Z,27.21
2022-09-14T10:15:50.475Z,27.90
2022-09-14T10:18:19.827Z,28.56
2022-09-14T10:20:53.283Z,29.89
2022-09-14T10:23:20.620Z,29.65
2022-09-14T10:25:53.699Z,30.22
2022-09-14T10:28:22.622Z,30.86
2022-09-14T10:30:57.475Z,30.99
2022-09-14T10:33:24.754Z,31.78
2022-09-14T10:36:14.597Z,31.88
2022-09-14T10:38:46.582Z,32.02
2022-09-14T10:41:16.727Z,31.83
2022-09-14T10:44:05.397Z,31.03
2022-09-14T10:47:10.979Z,30.05
2022-09-14T10:49:48.079Z,29.60
2022-09-14T10:52:31.357Z,28.79
2022-09-14T10:55:01.648Z,28.71
2022-09-14T10:58:01.584Z,28.93
2022-09-14T11:00:38.578Z,28.97
2022-09-14T11:03:31.001Z,29.67
2022-09-14T11:06:26.185Z,29.98
2022-09-14T11:09:03.143Z,30.02
2022-09-14T11:11:56.809Z,29.80
2022-09-14T11:14:45.370Z,29.57
2022-09-14T11:17:39.748Z,30.28
2022-09-14T11:20:16.106Z,30.33
2022-09-14T11:23:09.975Z,30.12
2022-09-14T11:25:52.731Z,29.81
2022-09-14T11:28:28.672Z,30.02
2022-09-14T11:31:04.855Z,30.40
2022-09-14T11:33:43.583Z,30.39
2022-09-14T11:36:16.698Z,29.97
2022-09-14T11:38:51.368Z,30.46
2022-09-14T11:41:37.974Z,29.97
2022-09-14T11:44:37.225Z,29.83
2022-09-14T11:47:08.759Z,29.96
2022-09-14T11:49:39.678Z,29.81
2022-09-14T11:52:16.473Z,30.13
2022-09-14T11:54:46.837Z,30.19
2022-09-14T11:57:18.776Z,30.07
2022-09-14T11:59:50.246Z,29.89
2022-09-14T12:02:23.717Z,29.85
2022-09-14T12:05:06.576Z,29.49
2022-09-14T12:07:40.000Z,29.26
2022-09-14T12:10:17.592Z,28.84
2022-09-14T12:13:04.364Z,28.77
2022-09-14T12:15:41.081Z,29.19
2022-09-14T12:18:11.592Z,29.69
2022-09-14T12:20:41.895Z,30.17
2022-09-14T12:23:31.927Z,30.26
2022-09-14T12:26:05.307Z,30.55
2022-09-14T12:28:37.089Z,30.05
2022-09-14T12:31:04.600Z,29.96
2022-09-14T12:33:32.172Z,29.63
2022-09-14T12:36:00.527Z,29.56
2022-09-14T12:38:32.720Z,29.08
2022-09-14T12:41:01.440Z,29.13
2022-09-14T12:43:35.277Z,29.00
2022-09-14T12:46:04.498Z,28.74
2022-09-14T12:48:55.474Z,28.82
2022-09-14T12:51:32.503Z,28.75
2022-09-14T12:54:08.996Z,28.81
2022-09-14T12:56:48.466Z,29.40
2022-09-14T12:59:21.748Z,29.98
2022-09-14T13:01:59.199Z,29.99
2022-09-14T13:04:28.185Z,30.28
2022-09-14T13:06:58.032Z,30.80
2022-09-14T13:09:27.598Z,30.61
2022-09-14T13:12:00.475Z,30.79
2022-09-14T13:14:31.847Z,30.54
2022-09-14T13:17:01.145Z,30.01
2022-09-14T13:19:31.777Z,29.52
2022-09-14T13:22:01.637Z,29.49
2022-09-14T13:24:44.000Z,29.30
2022-09-14T13:27:25.288Z,29.28
2022-09-14T13:30:01.646Z,29.36
2022-09-14T13:32:36.103Z,29.27
2022-09-14T13:35:05.620Z,29.38
2022-09-14T13:37:38.650Z,29.61
2022-09-14T13:40:06.897Z,29.79
2022-09-14T13:42:35.266Z,29.59
2022-09-14T13:45:05.076Z,29.70
2022-09-14T13:47:32.473Z,29.53
2022-09-14T13:50:00.491Z,29.50
2022-09-14T13:53:00.437Z,29.74
2022-09-14T13:55:50.213Z,29.11
2022-09-14T13:58:23.171Z,29.01
2022-09-14T14:01:04.470Z,28.85
2022-09-14T14:03:41.125Z,28.78
2022-09-14T14:06:22.617Z,28.77
2022-09-14T14:09:08.145Z,28.67
2022-09-14T14:11:39.544Z,28.73
2022-09-14T14:14:18.908Z,28.71
2022-09-14T14:17:21.986Z,28.74
2022-09-14T14:19:51.002Z,28.58
2022-09-14T14:22:21.310Z,28.47
2022-09-14T14:27:43.494Z,28.41
2022-09-14T14:30:25.763Z,28.25
2022-09-14T14:32:54.908Z,28.33
2022-09-14T14:35:25.366Z,28.20
2022-09-14T14:37:52.861Z,28.19
2022-09-14T14:40:20.581Z,28.12
2022-09-14T14:42:51.473Z,28.10
2022-09-14T14:45:26.757Z,28.21
2022-09-14T14:47:55.743Z,28.12
2022-09-14T14:50:41.963Z,28.14
2022-09-14T14:53:09.252Z,28.08
2022-09-14T14:55:37.593Z,28.10
2022-09-14T14:58:07.243Z,27.98
2022-09-14T15:00:36.756Z,27.99
2022-09-14T15:03:04.800Z,27.91
2022-09-14T15:05:32.896Z,27.78
2022-09-14T15:08:00.231Z,27.58
2022-09-14T15:10:29.566Z,27.53
2022-09-14T15:12:57.198Z,27.59
2022-09-14T15:15:26.470Z,27.61
2022-09-14T15:17:54.610Z,27.51
2022-09-14T15:20:23.070Z,27.45
2022-09-14T15:22:50.576Z,27.43
2022-09-14T15:25:20.052Z,27.51
2022-09-14T15:27:47.859Z,27.51
2022-09-14T15:30:16.171Z,27.50
2022-09-14T15:32:43.797Z,27.49
2022-09-14T15:35:13.198Z,27.60
2022-09-14T15:37:41.637Z,27.54
2022-09-14T15:40:09.865Z,27.44
2022-09-14T15:42:37.362Z,27.41
2022-09-14T15:45:05.527Z,27.32
2022-09-14T15:47:36.205Z,27.22
2022-09-14T15:50:05.949Z,27.20
2022-09-14T15:52:37.727Z,27.22
2022-09-14T15:55:10.015Z,27.14
2022-09-14T15:57:38.749Z,26.97
2022-09-14T16:00:10.289Z,26.97
2022-09-14T16:02:50.193Z,26.81
2022-09-14T16:05:19.010Z,26.66
2022-09-14T16:07:46.317Z,26.35
2022-09-14T16:10:13.560Z,26.15
2022-09-14T16:12:41.946Z,26.17
2022-09-14T16:15:09.945Z,25.99
2022-09-14T16:17:37.230Z,26.05
2022-09-14T16:20:05.279Z,26.05
2022-09-14T16:22:32.778Z,26.12
2022-09-14T16:25:00.032Z,25.97
2022-09-14T16:27:27.340Z,25.94
2022-09-14T16:29:54.648Z,25.87
2022-09-14T16:32:25.380Z,25.76
2022-09-14T16:34:52.699Z,25.76
2022-09-14T16:37:19.941Z,25.80
2022-09-14T16:39:48.046Z,25.83
2022-09-14T16:42:15.316Z,26.05
2022-09-14T16:44:43.032Z,26.05
2022-09-14T16:47:10.299Z,25.91
2022-09-14T16:49:39.334Z,25.92
2022-09-14T16:52:06.779Z,25.96
2022-09-14T16:54:34.091Z,25.83
2022-09-14T16:57:01.556Z,25.73
2022-09-14T16:59:28.789Z,25.71
2022-09-14T17:01:56.281Z,25.59
2022-09-14T17:04:25.259Z,25.57
2022-09-14T17:06:53.209Z,25.45
2022-09-14T17:09:23.382Z,25.48
2022-09-14T17:11:51.502Z,25.37
2022-09-14T17:14:21.636Z,25.38
2022-09-14T17:16:49.669Z,25.37
2022-09-14T17:19:17.849Z,25.42
2022-09-14T17:21:46.416Z,25.49
2022-09-14T17:24:15.353Z,25.52
2022-09-14T17:26:43.201Z,25.51
2022-09-14T17:29:11.224Z,25.52
2022-09-14T17:31:42.222Z,25.52
2022-09-14T17:34:11.552Z,25.48
2022-09-14T17:36:39.365Z,25.43
2022-09-14T17:39:11.599Z,25.29
2022-09-14T17:41:41.477Z,25.30
2022-09-14T17:44:11.422Z,25.23
2022-09-14T17:46:47.137Z,25.14
2022-09-14T17:49:22.358Z,25.04
2022-09-14T17:51:50.819Z,24.95
2022-09-14T17:54:19.288Z,24.92
2022-09-14T17:56:46.755Z,24.89
2022-09-14T17:59:20.376Z,24.96
2022-09-14T18:01:49.184Z,24.92
2022-09-14T18:04:17.369Z,24.94
2022-09-14T18:06:47.200Z,24.98
2022-09-14T18:09:17.587Z,24.97
2022-09-14T18:11:46.062Z,24.91
2022-09-14T18:14:14.591Z,24.84
2022-09-14T18:16:43.258Z,24.80
2022-09-14T18:19:11.301Z,24.80
2022-09-14T18:21:40.082Z,24.75
2022-09-14T18:24:08.211Z,24.58
2022-09-14T18:26:35.969Z,24.51
2022-09-14T18:29:03.771Z,24.50
2022-09-14T18:31:31.172Z,24.49
2022-09-14T18:34:00.271Z,24.48
2022-09-14T18:36:29.652Z,24.36
2022-09-14T18:38:58.905Z,24.27
2022-09-14T18:41:29.483Z,24.22
2022-09-14T18:43:58.183Z,24.21
2022-09-14T18:46:28.088Z,24.29
2022-09-14T18:48:58.258Z,24.36
2022-09-14T18:51:27.402Z,24.42
2022-09-14T18:54:04.158Z,24.42
2022-09-14T18:56:35.580Z,24.47
2022-09-14T18:59:05.170Z,24.40
2022-09-14T19:01:37.329Z,24.38
2022-09-14T19:04:06.923Z,24.34
2022-09-14T19:06:35.656Z,24.16
2022-09-14T19:09:04.756Z,24.15
2022-09-14T19:11:33.433Z,24.21
2022-09-14T19:14:05.017Z,24.24
2022-09-14T19:16:32.394Z,24.31
2022-09-14T19:18:59.848Z,24.31
2022-09-14T19:21:29.687Z,24.29
2022-09-14T19:24:02.490Z,24.24
2022-09-14T19:26:33.280Z,24.05
2022-09-14T19:29:01.839Z,24.01
2022-09-14T19:31:30.870Z,23.99
2022-09-14T19:33:59.569Z,23.90
2022-09-14T19:36:30.414Z,23.93
2022-09-14T19:39:01.989Z,23.91
2022-09-14T19:41:33.173Z,23.93
2022-09-14T19:44:01.584Z,23.89
2022-09-14T19:46:32.723Z,23.93
2022-09-14T19:49:00.100Z,23.87
2022-09-14T19:51:29.762Z,23.88
2022-09-14T19:53:59.453Z,23.81
2022-09-14T19:56:32.579Z,23.74
2022-09-14T19:59:01.780Z,23.64
2022-09-14T20:01:30.757Z,23.65
2022-09-14T20:03:58.381Z,23.57
2022-09-14T20:06:31.476Z,23.65
2022-09-14T20:09:06.244Z,23.63
2022-09-14T20:11:35.033Z,23.61
2022-09-14T20:14:06.797Z,23.57
2022-09-14T20:16:38.198Z,23.59
2022-09-14T20:19:12.252Z,23.60
2022-09-14T20:21:41.383Z,23.63
2022-09-14T20:24:17.172Z,23.62
2022-09-14T20:26:47.407Z,23.67
2022-09-14T20:29:15.672Z,23.56
2022-09-14T20:31:43.732Z,23.61
2022-09-14T20:34:11.917Z,23.61
2022-09-14T20:36:39.369Z,23.56
2022-09-14T20:39:06.728Z,23.58
2022-09-14T20:41:35.768Z,23.56
2022-09-14T20:44:04.125Z,23.44
2022-09-14T20:46:38.554Z,23.43
2022-09-14T20:49:11.339Z,23.36
2022-09-14T20:51:40.029Z,23.40
2022-09-14T20:54:09.992Z,23.41
2022-09-14T20:56:37.976Z,23.37
2022-09-14T20:59:07.487Z,23.38
2022-09-14T21:01:41.657Z,23.37
2022-09-14T21:04:15.393Z,23.40
2022-09-14T21:06:45.482Z,23.31
2022-09-14T21:09:14.250Z,23.29
2022-09-14T21:11:43.460Z,23.25
2022-09-14T21:14:10.750Z,23.09
2022-09-14T21:16:44.207Z,23.10
2022-09-14T21:19:28.499Z,23.11
2022-09-14T21:21:56.463Z,23.12
2022-09-14T21:24:24.452Z,23.18
2022-09-14T21:26:51.730Z,23.09
2022-09-14T21:29:23.637Z,23.09
2022-09-14T21:31:51.874Z,23.21
2022-09-14T21:34:19.583Z,23.15
2022-09-14T21:36:49.494Z,22.99
2022-09-14T21:39:21.508Z,22.98
2022-09-14T21:41:51.423Z,23.00
2022-09-14T21:44:21.805Z,22.91
2022-09-14T21:46:49.087Z,22.84
2022-09-14T21:49:18.375Z,22.93
2022-09-14T21:51:46.862Z,22.86
2022-09-14T21:54:15.152Z,22.84
2022-09-14T21:56:45.119Z,22.83
2022-09-14T21:59:19.158Z,22.90
2022-09-14T22:01:48.280Z,22.95
2022-09-14T22:04:18.655Z,22.96
2022-09-14T22:06:46.628Z,22.96
2022-09-14T22:09:15.772Z,22.98
2022-09-14T22:11:43.287Z,22.99
2022-09-14T22:14:13.320Z,23.06
2022-09-14T22:16:41.555Z,22.94
2022-09-14T22:19:20.614Z,22.97
2022-09-14T22:21:48.657Z,23.02
2022-09-14T22:24:20.414Z,23.00
2022-09-14T22:26:48.636Z,22.95
2022-09-14T22:29:17.218Z,22.97
2022-09-14T22:31:46.613Z,22.81
2022-09-14T22:34:17.085Z,22.62
2022-09-14T22:36:44.781Z,22.43
2022-09-14T22:39:13.807Z,22.62
2022-09-14T22:41:41.342Z,22.53
2022-09-14T22:44:08.803Z,22.45
2022-09-14T22:46:36.904Z,22.42
2022-09-14T22:49:04.678Z,22.42
2022-09-14T22:51:32.486Z,22.46
2022-09-14T22:53:59.819Z,22.39
2022-09-14T22:56:31.338Z,22.35
2022-09-14T22:59:00.772Z,22.41
2022-09-14T23:01:30.776Z,22.39
2022-09-14T23:04:07.469Z,22.35
2022-09-14T23:06:38.354Z,22.22
2022-09-14T23:09:08.619Z,22.10
2022-09-14T23:11:36.196Z,22.16
2022-09-14T23:14:03.839Z,22.10
2022-09-14T23:16:31.551Z,22.23
2022-09-14T23:19:02.916Z,22.26
2022-09-14T23:21:31.560Z,22.11
2022-09-14T23:24:02.711Z,22.03
2022-09-14T23:26:30.466Z,22.00
2022-09-14T23:29:09.654Z,21.93
2022-09-14T23:31:36.988Z,21.90
2022-09-14T23:34:05.523Z,21.95
2022-09-14T23:36:33.949Z,21.95
2022-09-14T23:39:04.172Z,21.87
2022-09-14T23:41:31.654Z,21.79
2022-09-14T23:43:59.027Z,21.82
2022-09-14T23:46:26.413Z,21.83
2022-09-14T23:49:12.472Z,21.85
2022-09-14T23:51:41.369Z,21.94
2022-09-14T23:54:09.564Z,21.87
2022-09-14T23:56:40.285Z,21.84
2022-09-14T23:59:11.107Z,21.88
